sensor_id;sensor_type;location;lat;lon;timestamp;P1;durP1;ratioP1;P2;durP2;ratioP2
55915;SDS011;41826;53.246;-6.670;2023-08-01T00:01:30;8.43;;;1.83;;
55915;SDS011;41826;53.246;-6.670;2023-08-01T00:03:55;6.28;;;1.60;;
55915;SDS011;41826;53.246;-6.670;2023-08-01T00:06:21;8.57;;;1.90;;
55915;SDS011;41826;53.246;-6.670;2023-08-01T00:08:47;7.60;;;1.55;;
55915;SDS011;41826;53.246;-6.670;2023-08-01T00:11:13;5.32;;;1.77;;
55915;SDS011;41826;53.246;-6.670;2023-08-01T00:13:39;7.93;;;2.13;;
55915;SDS011;41826;53.246;-6.670;2023-08-01T00:16:05;6.90;;;2.28;;
55915;SDS011;41826;53.246;-6.670;2023-08-01T00:18:30;8.63;;;1.73;;
55915;SDS011;41826;53.246;-6.670;2023-08-01T00:20:56;5.22;;;1.77;;
55915;SDS011;41826;53.246;-6.670;2023-08-01T00:23:21;6.80;;;1.75;;
55915;SDS011;41826;53.246;-6.670;2023-08-01T00:25:47;4.70;;;1.88;;
55915;SDS011;41826;53.246;-6.670;2023-08-01T00:28:17;6.38;;;1.70;;
55915;SDS011;41826;53.246;-6.670;2023-08-01T00:30:42;7.65;;;2.25;;
55915;SDS011;41826;53.246;-6.670;2023-08-01T00:33:08;10.52;;;1.73;;
55915;SDS011;41826;53.246;-6.670;2023-08-01T00:35:33;6.43;;;2.10;;
55915;SDS011;41826;53.246;-6.670;2023-08-01T00:37:59;4.45;;;1.80;;
55915;SDS011;41826;53.246;-6.670;2023-08-01T00:40:29;7.03;;;1.80;;
55915;SDS011;41826;53.246;-6.670;2023-08-01T00:42:56;6.35;;;2.10;;
55915;SDS011;41826;53.246;-6.670;2023-08-01T00:45:21;5.47;;;1.75;;
55915;SDS011;41826;53.246;-6.670;2023-08-01T00:47:49;9.35;;;2.58;;
55915;SDS011;41826;53.246;-6.670;2023-08-01T00:50:16;12.40;;;2.15;;
55915;SDS011;41826;53.246;-6.670;2023-08-01T00:52:45;9.10;;;1.55;;
55915;SDS011;41826;53.246;-6.670;2023-08-01T00:55:11;6.57;;;2.00;;
55915;SDS011;41826;53.246;-6.670;2023-08-01T00:57:36;5.60;;;2.10;;
55915;SDS011;41826;53.246;-6.670;2023-08-01T01:00:02;5.60;;;1.75;;
55915;SDS011;41826;53.246;-6.670;2023-08-01T01:02:28;4.78;;;1.90;;
55915;SDS011;41826;53.246;-6.670;2023-08-01T01:04:54;7.80;;;2.53;;
55915;SDS011;41826;53.246;-6.670;2023-08-01T01:07:19;3.85;;;2.20;;
55915;SDS011;41826;53.246;-6.670;2023-08-01T01:09:46;6.72;;;2.10;;
55915;SDS011;41826;53.246;-6.670;2023-08-01T01:12:12;6.18;;;2.22;;
55915;SDS011;41826;53.246;-6.670;2023-08-01T01:14:37;9.80;;;2.72;;
55915;SDS011;41826;53.246;-6.670;2023-08-01T01:17:03;4.32;;;2.17;;
55915;SDS011;41826;53.246;-6.670;2023-08-01T01:19:28;5.05;;;2.00;;
55915;SDS011;41826;53.246;-6.670;2023-08-01T01:21:53;5.95;;;2.15;;
55915;SDS011;41826;53.246;-6.670;2023-08-01T01:24:20;4.78;;;1.90;;
55915;SDS011;41826;53.246;-6.670;2023-08-01T01:26:47;5.63;;;2.35;;
55915;SDS011;41826;53.246;-6.670;2023-08-01T01:29:13;7.28;;;2.40;;
55915;SDS011;41826;53.246;-6.670;2023-08-01T01:31:39;6.93;;;2.33;;
55915;SDS011;41826;53.246;-6.670;2023-08-01T01:34:07;9.00;;;2.70;;
55915;SDS011;41826;53.246;-6.670;2023-08-01T01:36:32;8.90;;;2.95;;
55915;SDS011;41826;53.246;-6.670;2023-08-01T01:38:59;4.85;;;2.65;;
55915;SDS011;41826;53.246;-6.670;2023-08-01T01:41:24;8.13;;;2.08;;
55915;SDS011;41826;53.246;-6.670;2023-08-01T01:43:50;9.25;;;1.92;;
55915;SDS011;41826;53.246;-6.670;2023-08-01T01:46:16;3.97;;;2.10;;
55915;SDS011;41826;53.246;-6.670;2023-08-01T01:48:41;8.95;;;2.05;;
55915;SDS011;41826;53.246;-6.670;2023-08-01T01:51:07;3.70;;;1.88;;
55915;SDS011;41826;53.246;-6.670;2023-08-01T01:53:32;7.93;;;2.03;;
55915;SDS011;41826;53.246;-6.670;2023-08-01T01:55:58;3.67;;;1.80;;
55915;SDS011;41826;53.246;-6.670;2023-08-01T01:58:23;6.22;;;2.00;;
55915;SDS011;41826;53.246;-6.670;2023-08-01T02:00:49;6.68;;;2.17;;
55915;SDS011;41826;53.246;-6.670;2023-08-01T02:03:14;6.93;;;2.08;;
55915;SDS011;41826;53.246;-6.670;2023-08-01T02:05:40;4.65;;;1.95;;
55915;SDS011;41826;53.246;-6.670;2023-08-01T02:08:06;2.88;;;1.95;;
55915;SDS011;41826;53.246;-6.670;2023-08-01T02:10:32;4.50;;;2.05;;
55915;SDS011;41826;53.246;-6.670;2023-08-01T02:12:57;5.75;;;2.30;;
55915;SDS011;41826;53.246;-6.670;2023-08-01T02:15:23;9.25;;;1.65;;
55915;SDS011;41826;53.246;-6.670;2023-08-01T02:17:48;7.45;;;2.05;;
55915;SDS011;41826;53.246;-6.670;2023-08-01T02:20:14;7.03;;;1.50;;
55915;SDS011;41826;53.246;-6.670;2023-08-01T02:22:39;4.35;;;2.15;;
55915;SDS011;41826;53.246;-6.670;2023-08-01T02:25:04;5.63;;;2.13;;
55915;SDS011;41826;53.246;-6.670;2023-08-01T02:27:30;8.18;;;1.95;;
55915;SDS011;41826;53.246;-6.670;2023-08-01T02:29:55;6.80;;;2.10;;
55915;SDS011;41826;53.246;-6.670;2023-08-01T02:32:21;5.55;;;1.80;;
55915;SDS011;41826;53.246;-6.670;2023-08-01T02:34:46;3.38;;;2.35;;
55915;SDS011;41826;53.246;-6.670;2023-08-01T02:37:12;4.18;;;2.30;;
55915;SDS011;41826;53.246;-6.670;2023-08-01T02:39:38;7.07;;;2.30;;
55915;SDS011;41826;53.246;-6.670;2023-08-01T02:42:03;5.55;;;2.30;;
55915;SDS011;41826;53.246;-6.670;2023-08-01T02:44:29;6.30;;;2.33;;
55915;SDS011;41826;53.246;-6.670;2023-08-01T02:46:54;4.70;;;2.28;;
55915;SDS011;41826;53.246;-6.670;2023-08-01T02:49:20;3.60;;;1.98;;
55915;SDS011;41826;53.246;-6.670;2023-08-01T02:51:45;4.60;;;1.95;;
55915;SDS011;41826;53.246;-6.670;2023-08-01T02:54:10;5.50;;;2.58;;
55915;SDS011;41826;53.246;-6.670;2023-08-01T02:56:36;3.25;;;1.85;;
55915;SDS011;41826;53.246;-6.670;2023-08-01T02:59:06;7.47;;;1.80;;
55915;SDS011;41826;53.246;-6.670;2023-08-01T03:01:34;3.75;;;1.40;;
55915;SDS011;41826;53.246;-6.670;2023-08-01T03:04:04;4.30;;;1.67;;
55915;SDS011;41826;53.246;-6.670;2023-08-01T03:06:31;4.35;;;1.50;;
55915;SDS011;41826;53.246;-6.670;2023-08-01T03:08:58;6.82;;;1.67;;
55915;SDS011;41826;53.246;-6.670;2023-08-01T03:11:24;11.80;;;2.05;;
55915;SDS011;41826;53.246;-6.670;2023-08-01T03:13:49;8.43;;;2.03;;
55915;SDS011;41826;53.246;-6.670;2023-08-01T03:16:16;7.30;;;2.35;;
55915;SDS011;41826;53.246;-6.670;2023-08-01T03:18:41;8.23;;;2.05;;
55915;SDS011;41826;53.246;-6.670;2023-08-01T03:21:07;12.38;;;1.40;;
55915;SDS011;41826;53.246;-6.670;2023-08-01T03:23:33;6.03;;;1.80;;
55915;SDS011;41826;53.246;-6.670;2023-08-01T03:25:58;3.83;;;2.10;;
55915;SDS011;41826;53.246;-6.670;2023-08-01T03:28:25;5.15;;;1.80;;
55915;SDS011;41826;53.246;-6.670;2023-08-01T03:30:51;5.75;;;1.52;;
55915;SDS011;41826;53.246;-6.670;2023-08-01T03:33:18;5.30;;;2.20;;
55915;SDS011;41826;53.246;-6.670;2023-08-01T03:35:44;5.55;;;1.48;;
55915;SDS011;41826;53.246;-6.670;2023-08-01T03:38:09;3.72;;;2.20;;
55915;SDS011;41826;53.246;-6.670;2023-08-01T03:40:35;2.17;;;1.48;;
55915;SDS011;41826;53.246;-6.670;2023-08-01T03:43:01;3.85;;;1.90;;
55915;SDS011;41826;53.246;-6.670;2023-08-01T03:45:26;4.15;;;1.85;;
55915;SDS011;41826;53.246;-6.670;2023-08-01T03:47:52;3.55;;;1.38;;
55915;SDS011;41826;53.246;-6.670;2023-08-01T03:50:17;4.65;;;1.80;;
55915;SDS011;41826;53.246;-6.670;2023-08-01T03:52:43;3.05;;;1.30;;
55915;SDS011;41826;53.246;-6.670;2023-08-01T03:55:08;6.45;;;1.75;;
55915;SDS011;41826;53.246;-6.670;2023-08-01T03:57:34;7.38;;;1.23;;
55915;SDS011;41826;53.246;-6.670;2023-08-01T04:00:00;2.72;;;1.70;;
55915;SDS011;41826;53.246;-6.670;2023-08-01T04:02:25;6.07;;;1.42;;
55915;SDS011;41826;53.246;-6.670;2023-08-01T04:04:51;4.90;;;1.90;;
55915;SDS011;41826;53.246;-6.670;2023-08-01T04:07:16;2.60;;;1.50;;
55915;SDS011;41826;53.246;-6.670;2023-08-01T04:09:42;10.38;;;1.98;;
55915;SDS011;41826;53.246;-6.670;2023-08-01T04:12:08;3.97;;;1.70;;
55915;SDS011;41826;53.246;-6.670;2023-08-01T04:14:34;3.67;;;1.92;;
55915;SDS011;41826;53.246;-6.670;2023-08-01T04:16:59;4.47;;;1.50;;
55915;SDS011;41826;53.246;-6.670;2023-08-01T04:19:25;4.65;;;1.65;;
55915;SDS011;41826;53.246;-6.670;2023-08-01T04:21:50;5.20;;;1.77;;
55915;SDS011;41826;53.246;-6.670;2023-08-01T04:24:16;3.28;;;1.40;;
55915;SDS011;41826;53.246;-6.670;2023-08-01T04:26:41;5.90;;;1.98;;
55915;SDS011;41826;53.246;-6.670;2023-08-01T04:29:07;7.03;;;2.00;;
55915;SDS011;41826;53.246;-6.670;2023-08-01T04:31:32;3.90;;;2.00;;
55915;SDS011;41826;53.246;-6.670;2023-08-01T04:33:57;5.65;;;1.35;;
55915;SDS011;41826;53.246;-6.670;2023-08-01T04:36:23;3.55;;;1.50;;
55915;SDS011;41826;53.246;-6.670;2023-08-01T04:38:48;7.53;;;2.33;;
55915;SDS011;41826;53.246;-6.670;2023-08-01T04:41:14;3.72;;;1.80;;
55915;SDS011;41826;53.246;-6.670;2023-08-01T04:43:39;2.40;;;1.67;;
55915;SDS011;41826;53.246;-6.670;2023-08-01T04:46:04;5.00;;;1.48;;
55915;SDS011;41826;53.246;-6.670;2023-08-01T04:48:30;5.18;;;1.80;;
55915;SDS011;41826;53.246;-6.670;2023-08-01T04:50:55;8.35;;;1.80;;
55915;SDS011;41826;53.246;-6.670;2023-08-01T04:53:20;4.68;;;1.88;;
55915;SDS011;41826;53.246;-6.670;2023-08-01T04:55:46;4.15;;;1.80;;
55915;SDS011;41826;53.246;-6.670;2023-08-01T04:58:11;5.85;;;1.40;;
55915;SDS011;41826;53.246;-6.670;2023-08-01T05:00:37;2.20;;;1.50;;
55915;SDS011;41826;53.246;-6.670;2023-08-01T05:03:03;2.42;;;1.70;;
55915;SDS011;41826;53.246;-6.670;2023-08-01T05:05:28;4.28;;;1.60;;
55915;SDS011;41826;53.246;-6.670;2023-08-01T05:07:53;4.88;;;1.65;;
55915;SDS011;41826;53.246;-6.670;2023-08-01T05:10:19;2.70;;;1.38;;
55915;SDS011;41826;53.246;-6.670;2023-08-01T05:12:45;3.45;;;1.60;;
55915;SDS011;41826;53.246;-6.670;2023-08-01T05:15:10;9.30;;;1.67;;
55915;SDS011;41826;53.246;-6.670;2023-08-01T05:17:36;11.05;;;1.40;;
55915;SDS011;41826;53.246;-6.670;2023-08-01T05:20:01;9.93;;;1.80;;
55915;SDS011;41826;53.246;-6.670;2023-08-01T05:22:29;5.45;;;1.70;;
55915;SDS011;41826;53.246;-6.670;2023-08-01T05:24:54;7.20;;;1.40;;
55915;SDS011;41826;53.246;-6.670;2023-08-01T05:27:20;3.85;;;1.45;;
55915;SDS011;41826;53.246;-6.670;2023-08-01T05:29:45;7.93;;;1.70;;
55915;SDS011;41826;53.246;-6.670;2023-08-01T05:32:10;6.55;;;1.30;;
55915;SDS011;41826;53.246;-6.670;2023-08-01T05:34:36;3.95;;;2.53;;
55915;SDS011;41826;53.246;-6.670;2023-08-01T05:37:01;5.40;;;1.88;;
55915;SDS011;41826;53.246;-6.670;2023-08-01T05:39:26;6.63;;;1.42;;
55915;SDS011;41826;53.246;-6.670;2023-08-01T05:41:52;4.60;;;1.60;;
55915;SDS011;41826;53.246;-6.670;2023-08-01T05:44:17;4.90;;;1.52;;
55915;SDS011;41826;53.246;-6.670;2023-08-01T05:46:43;3.40;;;1.40;;
55915;SDS011;41826;53.246;-6.670;2023-08-01T05:49:08;2.60;;;1.45;;
55915;SDS011;41826;53.246;-6.670;2023-08-01T05:51:33;3.33;;;1.42;;
55915;SDS011;41826;53.246;-6.670;2023-08-01T05:53:59;3.35;;;1.30;;
55915;SDS011;41826;53.246;-6.670;2023-08-01T05:56:24;6.88;;;1.10;;
55915;SDS011;41826;53.246;-6.670;2023-08-01T05:58:49;6.00;;;1.65;;
55915;SDS011;41826;53.246;-6.670;2023-08-01T06:01:15;4.97;;;1.15;;
55915;SDS011;41826;53.246;-6.670;2023-08-01T06:03:41;3.80;;;1.20;;
55915;SDS011;41826;53.246;-6.670;2023-08-01T06:06:07;3.95;;;1.25;;
55915;SDS011;41826;53.246;-6.670;2023-08-01T06:08:33;6.25;;;1.63;;
55915;SDS011;41826;53.246;-6.670;2023-08-01T06:10:58;5.20;;;1.50;;
55915;SDS011;41826;53.246;-6.670;2023-08-01T06:13:24;2.20;;;1.20;;
55915;SDS011;41826;53.246;-6.670;2023-08-01T06:15:49;4.35;;;1.13;;
55915;SDS011;41826;53.246;-6.670;2023-08-01T06:18:14;4.78;;;1.13;;
55915;SDS011;41826;53.246;-6.670;2023-08-01T06:20:40;6.35;;;1.20;;
55915;SDS011;41826;53.246;-6.670;2023-08-01T06:23:05;1.73;;;1.50;;
55915;SDS011;41826;53.246;-6.670;2023-08-01T06:25:31;5.65;;;1.63;;
55915;SDS011;41826;53.246;-6.670;2023-08-01T06:27:56;3.60;;;1.48;;
55915;SDS011;41826;53.246;-6.670;2023-08-01T06:30:22;5.20;;;1.48;;
55915;SDS011;41826;53.246;-6.670;2023-08-01T06:32:47;7.15;;;1.25;;
55915;SDS011;41826;53.246;-6.670;2023-08-01T06:35:12;5.53;;;1.23;;
55915;SDS011;41826;53.246;-6.670;2023-08-01T06:37:38;3.13;;;1.33;;
55915;SDS011;41826;53.246;-6.670;2023-08-01T06:40:04;4.60;;;1.60;;
55915;SDS011;41826;53.246;-6.670;2023-08-01T06:42:30;8.05;;;1.23;;
55915;SDS011;41826;53.246;-6.670;2023-08-01T06:44:55;2.58;;;1.23;;
55915;SDS011;41826;53.246;-6.670;2023-08-01T06:47:21;3.92;;;1.40;;
55915;SDS011;41826;53.246;-6.670;2023-08-01T06:49:46;2.92;;;1.50;;
55915;SDS011;41826;53.246;-6.670;2023-08-01T06:52:11;2.10;;;1.30;;
55915;SDS011;41826;53.246;-6.670;2023-08-01T06:54:37;3.30;;;1.10;;
55915;SDS011;41826;53.246;-6.670;2023-08-01T06:57:02;3.08;;;0.88;;
55915;SDS011;41826;53.246;-6.670;2023-08-01T06:59:28;3.13;;;1.15;;
55915;SDS011;41826;53.246;-6.670;2023-08-01T07:01:53;5.38;;;1.05;;
55915;SDS011;41826;53.246;-6.670;2023-08-01T07:04:19;2.72;;;0.90;;
55915;SDS011;41826;53.246;-6.670;2023-08-01T07:06:44;3.50;;;1.77;;
55915;SDS011;41826;53.246;-6.670;2023-08-01T07:09:10;5.15;;;1.15;;
55915;SDS011;41826;53.246;-6.670;2023-08-01T07:11:35;4.55;;;1.10;;
55915;SDS011;41826;53.246;-6.670;2023-08-01T07:14:00;2.17;;;0.63;;
55915;SDS011;41826;53.246;-6.670;2023-08-01T07:16:26;3.53;;;1.00;;
55915;SDS011;41826;53.246;-6.670;2023-08-01T07:18:51;5.22;;;1.00;;
55915;SDS011;41826;53.246;-6.670;2023-08-01T07:21:17;2.63;;;0.95;;
55915;SDS011;41826;53.246;-6.670;2023-08-01T07:23:42;3.90;;;1.45;;
55915;SDS011;41826;53.246;-6.670;2023-08-01T07:26:08;4.65;;;1.05;;
55915;SDS011;41826;53.246;-6.670;2023-08-01T07:28:35;2.00;;;0.93;;
55915;SDS011;41826;53.246;-6.670;2023-08-01T07:31:04;2.10;;;1.25;;
55915;SDS011;41826;53.246;-6.670;2023-08-01T07:33:31;1.30;;;0.80;;
55915;SDS011;41826;53.246;-6.670;2023-08-01T07:35:58;3.22;;;0.90;;
55915;SDS011;41826;53.246;-6.670;2023-08-01T07:38:23;3.28;;;1.30;;
55915;SDS011;41826;53.246;-6.670;2023-08-01T07:40:49;3.15;;;0.98;;
55915;SDS011;41826;53.246;-6.670;2023-08-01T07:43:14;2.25;;;0.80;;
55915;SDS011;41826;53.246;-6.670;2023-08-01T07:45:40;3.40;;;0.70;;
55915;SDS011;41826;53.246;-6.670;2023-08-01T07:48:06;2.75;;;1.02;;
55915;SDS011;41826;53.246;-6.670;2023-08-01T07:50:31;2.45;;;1.13;;
55915;SDS011;41826;53.246;-6.670;2023-08-01T07:52:57;3.53;;;0.80;;
55915;SDS011;41826;53.246;-6.670;2023-08-01T07:55:22;1.77;;;0.75;;
55915;SDS011;41826;53.246;-6.670;2023-08-01T07:57:48;2.85;;;0.85;;
55915;SDS011;41826;53.246;-6.670;2023-08-01T08:00:13;3.65;;;0.80;;
55915;SDS011;41826;53.246;-6.670;2023-08-01T08:02:43;2.47;;;0.95;;
55915;SDS011;41826;53.246;-6.670;2023-08-01T08:05:10;3.42;;;0.70;;
55915;SDS011;41826;53.246;-6.670;2023-08-01T08:07:38;2.28;;;0.60;;
55915;SDS011;41826;53.246;-6.670;2023-08-01T08:10:04;3.88;;;0.60;;
55915;SDS011;41826;53.246;-6.670;2023-08-01T08:12:30;1.48;;;0.63;;
55915;SDS011;41826;53.246;-6.670;2023-08-01T08:14:56;1.70;;;0.50;;
55915;SDS011;41826;53.246;-6.670;2023-08-01T08:17:21;2.65;;;0.52;;
55915;SDS011;41826;53.246;-6.670;2023-08-01T08:19:47;1.10;;;0.50;;
55915;SDS011;41826;53.246;-6.670;2023-08-01T08:22:12;1.30;;;0.60;;
55915;SDS011;41826;53.246;-6.670;2023-08-01T08:24:38;1.58;;;0.50;;
55915;SDS011;41826;53.246;-6.670;2023-08-01T08:27:03;5.28;;;0.50;;
55915;SDS011;41826;53.246;-6.670;2023-08-01T08:29:29;0.85;;;0.50;;
55915;SDS011;41826;53.246;-6.670;2023-08-01T08:31:56;0.40;;;0.30;;
55915;SDS011;41826;53.246;-6.670;2023-08-01T08:34:21;1.05;;;0.50;;
55915;SDS011;41826;53.246;-6.670;2023-08-01T08:36:47;2.33;;;0.52;;
55915;SDS011;41826;53.246;-6.670;2023-08-01T08:39:12;1.55;;;0.43;;
55915;SDS011;41826;53.246;-6.670;2023-08-01T08:41:38;3.10;;;0.50;;
55915;SDS011;41826;53.246;-6.670;2023-08-01T08:44:10;1.13;;;0.40;;
55915;SDS011;41826;53.246;-6.670;2023-08-01T08:46:39;1.55;;;0.40;;
55915;SDS011;41826;53.246;-6.670;2023-08-01T08:49:09;3.83;;;0.70;;
55915;SDS011;41826;53.246;-6.670;2023-08-01T08:51:36;2.20;;;0.40;;
55915;SDS011;41826;53.246;-6.670;2023-08-01T08:54:06;0.98;;;0.60;;
55915;SDS011;41826;53.246;-6.670;2023-08-01T08:56:33;3.63;;;0.40;;
55915;SDS011;41826;53.246;-6.670;2023-08-01T08:59:00;1.77;;;0.45;;
55915;SDS011;41826;53.246;-6.670;2023-08-01T09:01:26;4.05;;;0.50;;
55915;SDS011;41826;53.246;-6.670;2023-08-01T09:03:51;1.85;;;0.40;;
55915;SDS011;41826;53.246;-6.670;2023-08-01T09:06:20;0.60;;;0.50;;
55915;SDS011;41826;53.246;-6.670;2023-08-01T09:08:50;2.10;;;0.40;;
55915;SDS011;41826;53.246;-6.670;2023-08-01T09:11:19;0.90;;;0.30;;
55915;SDS011;41826;53.246;-6.670;2023-08-01T09:13:44;2.10;;;0.40;;
55915;SDS011;41826;53.246;-6.670;2023-08-01T09:16:10;2.55;;;0.40;;
55915;SDS011;41826;53.246;-6.670;2023-08-01T09:18:47;0.47;;;0.38;;
55915;SDS011;41826;53.246;-6.670;2023-08-01T09:21:22;0.70;;;0.50;;
55915;SDS011;41826;53.246;-6.670;2023-08-01T09:23:47;4.38;;;0.57;;
55915;SDS011;41826;53.246;-6.670;2023-08-01T09:26:16;0.40;;;0.40;;
55915;SDS011;41826;53.246;-6.670;2023-08-01T09:28:43;1.75;;;0.55;;
55915;SDS011;41826;53.246;-6.670;2023-08-01T09:31:09;1.00;;;0.40;;
55915;SDS011;41826;53.246;-6.670;2023-08-01T09:33:41;2.60;;;0.45;;
55915;SDS011;41826;53.246;-6.670;2023-08-01T09:36:10;3.05;;;0.30;;
55915;SDS011;41826;53.246;-6.670;2023-08-01T09:38:35;0.90;;;0.40;;
55915;SDS011;41826;53.246;-6.670;2023-08-01T09:41:03;3.85;;;0.47;;
55915;SDS011;41826;53.246;-6.670;2023-08-01T09:43:35;2.00;;;0.52;;
55915;SDS011;41826;53.246;-6.670;2023-08-01T09:46:02;0.95;;;0.43;;
55915;SDS011;41826;53.246;-6.670;2023-08-01T09:48:28;1.73;;;0.65;;
55915;SDS011;41826;53.246;-6.670;2023-08-01T09:51:08;1.45;;;0.43;;
55915;SDS011;41826;53.246;-6.670;2023-08-01T09:53:54;1.77;;;0.45;;
55915;SDS011;41826;53.246;-6.670;2023-08-01T09:56:24;1.00;;;0.30;;
55915;SDS011;41826;53.246;-6.670;2023-08-01T09:58:51;1.35;;;0.38;;
55915;SDS011;41826;53.246;-6.670;2023-08-01T10:01:19;1.00;;;0.30;;
55915;SDS011;41826;53.246;-6.670;2023-08-01T10:03:46;1.05;;;0.40;;
55915;SDS011;41826;53.246;-6.670;2023-08-01T10:06:14;1.58;;;0.47;;
55915;SDS011;41826;53.246;-6.670;2023-08-01T10:08:44;0.95;;;0.38;;
55915;SDS011;41826;53.246;-6.670;2023-08-01T10:11:10;3.35;;;0.40;;
55915;SDS011;41826;53.246;-6.670;2023-08-01T10:13:37;0.63;;;0.45;;
55915;SDS011;41826;53.246;-6.670;2023-08-01T10:16:03;4.47;;;0.40;;
55915;SDS011;41826;53.246;-6.670;2023-08-01T10:18:31;1.65;;;0.50;;
55915;SDS011;41826;53.246;-6.670;2023-08-01T10:20:57;1.85;;;0.35;;
55915;SDS011;41826;53.246;-6.670;2023-08-01T10:23:23;0.30;;;0.30;;
55915;SDS011;41826;53.246;-6.670;2023-08-01T10:25:50;0.70;;;0.30;;
55915;SDS011;41826;53.246;-6.670;2023-08-01T10:28:16;1.77;;;0.20;;
55915;SDS011;41826;53.246;-6.670;2023-08-01T10:30:41;1.20;;;0.32;;
55915;SDS011;41826;53.246;-6.670;2023-08-01T10:33:07;3.90;;;0.47;;
55915;SDS011;41826;53.246;-6.670;2023-08-01T10:35:38;3.95;;;0.30;;
55915;SDS011;41826;53.246;-6.670;2023-08-01T10:38:05;0.40;;;0.30;;
55915;SDS011;41826;53.246;-6.670;2023-08-01T10:40:36;1.65;;;0.40;;
55915;SDS011;41826;53.246;-6.670;2023-08-01T10:43:04;3.30;;;0.38;;
55915;SDS011;41826;53.246;-6.670;2023-08-01T10:45:30;2.15;;;0.60;;
55915;SDS011;41826;53.246;-6.670;2023-08-01T10:48:09;2.08;;;0.30;;
55915;SDS011;41826;53.246;-6.670;2023-08-01T10:50:35;2.17;;;0.30;;
55915;SDS011;41826;53.246;-6.670;2023-08-01T10:53:04;2.30;;;0.20;;
55915;SDS011;41826;53.246;-6.670;2023-08-01T10:55:40;1.73;;;0.22;;
55915;SDS011;41826;53.246;-6.670;2023-08-01T10:58:07;0.93;;;0.38;;
55915;SDS011;41826;53.246;-6.670;2023-08-01T11:00:33;0.60;;;0.30;;
55915;SDS011;41826;53.246;-6.670;2023-08-01T11:02:58;0.20;;;0.20;;
55915;SDS011;41826;53.246;-6.670;2023-08-01T11:05:24;0.77;;;0.35;;
55915;SDS011;41826;53.246;-6.670;2023-08-01T11:08:01;0.55;;;0.30;;
55915;SDS011;41826;53.246;-6.670;2023-08-01T11:10:29;1.13;;;0.30;;
55915;SDS011;41826;53.246;-6.670;2023-08-01T11:12:55;0.40;;;0.20;;
55915;SDS011;41826;53.246;-6.670;2023-08-01T11:15:21;2.42;;;0.30;;
55915;SDS011;41826;53.246;-6.670;2023-08-01T11:17:47;2.10;;;0.38;;
55915;SDS011;41826;53.246;-6.670;2023-08-01T11:20:18;0.38;;;0.30;;
55915;SDS011;41826;53.246;-6.670;2023-08-01T11:22:53;0.47;;;0.30;;
55915;SDS011;41826;53.246;-6.670;2023-08-01T11:25:36;0.98;;;0.20;;
55915;SDS011;41826;53.246;-6.670;2023-08-01T11:28:08;0.32;;;0.20;;
55915;SDS011;41826;53.246;-6.670;2023-08-01T11:30:40;1.65;;;0.30;;
55915;SDS011;41826;53.246;-6.670;2023-08-01T11:33:24;0.20;;;0.20;;
55915;SDS011;41826;53.246;-6.670;2023-08-01T11:35:53;0.50;;;0.20;;
55915;SDS011;41826;53.246;-6.670;2023-08-01T11:40:48;1.15;;;0.20;;
55915;SDS011;41826;53.246;-6.670;2023-08-01T11:43:15;0.17;;;0.17;;
55915;SDS011;41826;53.246;-6.670;2023-08-01T11:45:51;0.20;;;0.20;;
55915;SDS011;41826;53.246;-6.670;2023-08-01T11:48:23;0.22;;;0.20;;
55915;SDS011;41826;53.246;-6.670;2023-08-01T11:50:49;1.85;;;0.30;;
55915;SDS011;41826;53.246;-6.670;2023-08-01T11:53:19;0.80;;;0.32;;
55915;SDS011;41826;53.246;-6.670;2023-08-01T11:55:45;0.57;;;0.20;;
55915;SDS011;41826;53.246;-6.670;2023-08-01T11:58:11;2.70;;;0.30;;
55915;SDS011;41826;53.246;-6.670;2023-08-01T12:00:36;0.52;;;0.20;;
55915;SDS011;41826;53.246;-6.670;2023-08-01T12:05:38;1.27;;;0.30;;
55915;SDS011;41826;53.246;-6.670;2023-08-01T12:08:12;0.15;;;0.15;;
55915;SDS011;41826;53.246;-6.670;2023-08-01T12:10:43;0.47;;;0.20;;
55915;SDS011;41826;53.246;-6.670;2023-08-01T12:13:23;1.08;;;0.20;;
55915;SDS011;41826;53.246;-6.670;2023-08-01T12:15:53;1.92;;;0.30;;
55915;SDS011;41826;53.246;-6.670;2023-08-01T12:18:25;1.67;;;0.20;;
55915;SDS011;41826;53.246;-6.670;2023-08-01T12:20:55;0.55;;;0.28;;
55915;SDS011;41826;53.246;-6.670;2023-08-01T12:23:21;0.80;;;0.20;;
55915;SDS011;41826;53.246;-6.670;2023-08-01T12:25:46;0.47;;;0.20;;
55915;SDS011;41826;53.246;-6.670;2023-08-01T12:28:15;1.45;;;0.30;;
55915;SDS011;41826;53.246;-6.670;2023-08-01T12:30:42;2.55;;;0.52;;
55915;SDS011;41826;53.246;-6.670;2023-08-01T12:33:08;1.60;;;0.30;;
55915;SDS011;41826;53.246;-6.670;2023-08-01T12:35:34;2.00;;;0.30;;
55915;SDS011;41826;53.246;-6.670;2023-08-01T12:37:59;2.67;;;0.30;;
55915;SDS011;41826;53.246;-6.670;2023-08-01T12:40:25;5.65;;;0.60;;
55915;SDS011;41826;53.246;-6.670;2023-08-01T12:42:50;0.40;;;0.20;;
55915;SDS011;41826;53.246;-6.670;2023-08-01T12:45:15;2.83;;;0.40;;
55915;SDS011;41826;53.246;-6.670;2023-08-01T12:47:41;1.80;;;0.20;;
55915;SDS011;41826;53.246;-6.670;2023-08-01T12:50:07;1.50;;;0.30;;
55915;SDS011;41826;53.246;-6.670;2023-08-01T12:52:32;0.85;;;0.30;;
55915;SDS011;41826;53.246;-6.670;2023-08-01T12:54:58;2.28;;;0.30;;
55915;SDS011;41826;53.246;-6.670;2023-08-01T12:57:23;2.05;;;0.30;;
55915;SDS011;41826;53.246;-6.670;2023-08-01T12:59:48;0.80;;;0.35;;
55915;SDS011;41826;53.246;-6.670;2023-08-01T13:02:14;0.38;;;0.20;;
55915;SDS011;41826;53.246;-6.670;2023-08-01T13:04:39;0.77;;;0.30;;
55915;SDS011;41826;53.246;-6.670;2023-08-01T13:07:05;0.95;;;0.30;;
55915;SDS011;41826;53.246;-6.670;2023-08-01T13:09:30;1.77;;;0.30;;
55915;SDS011;41826;53.246;-6.670;2023-08-01T13:11:56;2.65;;;0.32;;
55915;SDS011;41826;53.246;-6.670;2023-08-01T13:14:21;3.25;;;0.30;;
55915;SDS011;41826;53.246;-6.670;2023-08-01T13:16:48;0.47;;;0.20;;
55915;SDS011;41826;53.246;-6.670;2023-08-01T13:19:13;0.30;;;0.20;;
55915;SDS011;41826;53.246;-6.670;2023-08-01T13:21:38;0.28;;;0.20;;
55915;SDS011;41826;53.246;-6.670;2023-08-01T13:24:04;0.20;;;0.20;;
55915;SDS011;41826;53.246;-6.670;2023-08-01T13:26:33;0.30;;;0.30;;
55915;SDS011;41826;53.246;-6.670;2023-08-01T13:28:58;2.80;;;0.20;;
55915;SDS011;41826;53.246;-6.670;2023-08-01T13:31:25;0.60;;;0.20;;
55915;SDS011;41826;53.246;-6.670;2023-08-01T13:33:51;0.50;;;0.20;;
55915;SDS011;41826;53.246;-6.670;2023-08-01T13:36:17;2.45;;;0.30;;
55915;SDS011;41826;53.246;-6.670;2023-08-01T13:38:43;0.82;;;0.10;;
55915;SDS011;41826;53.246;-6.670;2023-08-01T13:41:09;0.20;;;0.20;;
55915;SDS011;41826;53.246;-6.670;2023-08-01T13:43:34;0.22;;;0.20;;
55915;SDS011;41826;53.246;-6.670;2023-08-01T13:45:59;0.60;;;0.30;;
55915;SDS011;41826;53.246;-6.670;2023-08-01T13:48:25;0.20;;;0.20;;
55915;SDS011;41826;53.246;-6.670;2023-08-01T13:50:50;2.40;;;0.30;;
55915;SDS011;41826;53.246;-6.670;2023-08-01T13:53:16;1.17;;;0.30;;
55915;SDS011;41826;53.246;-6.670;2023-08-01T13:55:42;1.65;;;0.20;;
55915;SDS011;41826;53.246;-6.670;2023-08-01T13:58:07;1.10;;;0.20;;
55915;SDS011;41826;53.246;-6.670;2023-08-01T14:00:33;0.75;;;0.20;;
55915;SDS011;41826;53.246;-6.670;2023-08-01T14:02:58;0.40;;;0.20;;
55915;SDS011;41826;53.246;-6.670;2023-08-01T14:05:25;2.15;;;0.30;;
55915;SDS011;41826;53.246;-6.670;2023-08-01T14:07:51;0.85;;;0.20;;
55915;SDS011;41826;53.246;-6.670;2023-08-01T14:10:17;2.30;;;0.20;;
55915;SDS011;41826;53.246;-6.670;2023-08-01T14:12:42;3.28;;;0.30;;
55915;SDS011;41826;53.246;-6.670;2023-08-01T14:15:08;0.82;;;0.20;;
55915;SDS011;41826;53.246;-6.670;2023-08-01T14:17:34;0.32;;;0.30;;
55915;SDS011;41826;53.246;-6.670;2023-08-01T14:20:00;1.00;;;0.25;;
55915;SDS011;41826;53.246;-6.670;2023-08-01T14:22:29;0.73;;;0.20;;
55915;SDS011;41826;53.246;-6.670;2023-08-01T14:24:54;0.65;;;0.20;;
55915;SDS011;41826;53.246;-6.670;2023-08-01T14:27:19;1.33;;;0.30;;
55915;SDS011;41826;53.246;-6.670;2023-08-01T14:29:46;1.17;;;0.30;;
55915;SDS011;41826;53.246;-6.670;2023-08-01T14:32:12;0.90;;;0.22;;
55915;SDS011;41826;53.246;-6.670;2023-08-01T14:34:37;1.13;;;0.30;;